createdAt,value
2022-10-18T00:02:14.003Z,96384.28
2022-10-18T00:04:40.527Z,96376.72
2022-10-18T00:07:07.290Z,96380.91
2022-10-18T00:09:34.622Z,96388.56
2022-10-18T00:12:01.118Z,96377.78
2022-10-18T00:14:27.807Z,96389.00
2022-10-18T00:16:54.361Z,96382.59
2022-10-18T00:19:22.194Z,96382.38
2022-10-18T00:21:51.141Z,96384.13
2022-10-18T00:24:17.782Z,96392.94
2022-10-18T00:26:44.288Z,96400.41
2022-10-18T00:29:13.967Z,96404.06
2022-10-18T00:31:40.572Z,96399.53
2022-10-18T00:34:14.023Z,96404.78
2022-10-18T00:36:41.506Z,96388.56
2022-10-18T00:39:09.392Z,96386.78
2022-10-18T00:41:37.011Z,96387.69
2022-10-18T00:44:26.622Z,96382.66
2022-10-18T00:46:58.078Z,96386.81
2022-10-18T00:49:34.545Z,96381.16
2022-10-18T00:52:07.961Z,96385.59
2022-10-18T00:54:36.987Z,96380.78
2022-10-18T00:57:04.715Z,96383.00
2022-10-18T00:59:31.229Z,96382.81
2022-10-18T01:01:57.959Z,96383.13
2022-10-18T01:04:25.243Z,96386.16
2022-10-18T01:07:04.098Z,96391.09
2022-10-18T01:10:01.408Z,96390.06
2022-10-18T01:12:44.305Z,96388.75
2022-10-18T01:15:27.979Z,96392.28
2022-10-18T01:18:25.900Z,96390.47
2022-10-18T01:21:02.506Z,96389.69
2022-10-18T01:23:50.682Z,96390.00
2022-10-18T01:26:38.139Z,96386.44
2022-10-18T01:29:20.737Z,96377.78
2022-10-18T01:31:54.309Z,96378.88
2022-10-18T01:34:24.451Z,96369.13
2022-10-18T01:36:53.730Z,96371.31
2022-10-18T01:39:28.218Z,96367.31
2022-10-18T01:41:56.581Z,96361.03
2022-10-18T01:44:25.869Z,96362.16
2022-10-18T01:46:55.591Z,96368.72
2022-10-18T01:49:22.297Z,96361.66
2022-10-18T01:51:48.954Z,96360.06
2022-10-18T01:54:20.414Z,96370.63
2022-10-18T01:57:14.774Z,96360.66
2022-10-18T02:00:02.735Z,96367.19
2022-10-18T02:02:42.815Z,96358.25
2022-10-18T02:05:18.293Z,96361.25
2022-10-18T02:08:19.218Z,96362.66
2022-10-18T02:10:54.509Z,96354.00
2022-10-18T02:13:23.952Z,96362.47
2022-10-18T02:15:56.338Z,96357.63
2022-10-18T02:18:31.717Z,96361.50
2022-10-18T02:21:00.123Z,96362.09
2022-10-18T02:23:26.974Z,96355.03
2022-10-18T02:25:53.950Z,96351.81
2022-10-18T02:28:21.723Z,96356.44
2022-10-18T02:31:03.335Z,96356.22
2022-10-18T02:33:38.778Z,96356.53
2022-10-18T02:36:22.189Z,96353.81
2022-10-18T02:38:54.219Z,96350.59
2022-10-18T02:41:27.199Z,96355.22
2022-10-18T02:43:54.495Z,96359.06
2022-10-18T02:46:21.122Z,96364.81
2022-10-18T02:48:47.795Z,96366.72
2022-10-18T02:51:14.537Z,96364.31
2022-10-18T02:53:41.164Z,96368.94
2022-10-18T02:56:08.442Z,96377.09
2022-10-18T02:58:35.027Z,96383.66
2022-10-18T03:01:01.541Z,96378.22
2022-10-18T03:03:28.196Z,96378.50
2022-10-18T03:05:54.702Z,96382.34
2022-10-18T03:08:21.182Z,96388.06
2022-10-18T03:10:47.676Z,96373.97
2022-10-18T03:13:14.762Z,96375.88
2022-10-18T03:15:41.398Z,96380.81
2022-10-18T03:18:08.036Z,96372.94
2022-10-18T03:20:35.398Z,96380.31
2022-10-18T03:23:01.959Z,96382.84
2022-10-18T03:25:28.423Z,96383.63
2022-10-18T03:27:55.023Z,96376.56
2022-10-18T03:30:21.513Z,96376.88
2022-10-18T03:32:47.987Z,96379.59
2022-10-18T03:35:14.497Z,96376.06
2022-10-18T03:37:41.144Z,96371.72
2022-10-18T03:40:09.932Z,96382.91
2022-10-18T03:42:36.476Z,96383.22
2022-10-18T03:45:03.160Z,96392.50
2022-10-18T03:47:29.790Z,96387.66
2022-10-18T03:49:57.284Z,96397.22
2022-10-18T03:52:24.316Z,96394.78
2022-10-18T03:54:51.117Z,96381.50
2022-10-18T03:57:17.644Z,96392.66
2022-10-18T03:59:44.271Z,96400.31
2022-10-18T04:02:10.812Z,96399.00
2022-10-18T04:04:37.281Z,96400.13
2022-10-18T04:07:03.848Z,96397.69
2022-10-18T04:09:30.390Z,96402.91
2022-10-18T04:11:56.942Z,96402.91
2022-10-18T04:14:23.454Z,96405.13
2022-10-18T04:16:50.002Z,96401.59
2022-10-18T04:19:16.557Z,96397.25
2022-10-18T04:21:43.164Z,96392.94
2022-10-18T04:24:09.664Z,96383.97
2022-10-18T04:26:36.199Z,96390.22
2022-10-18T04:29:02.914Z,96393.75
2022-10-18T04:31:29.615Z,96403.50
2022-10-18T04:33:56.262Z,96412.78
2022-10-18T04:36:22.792Z,96411.66
2022-10-18T04:38:49.217Z,96412.78
2022-10-18T04:41:15.811Z,96410.84
2022-10-18T04:43:42.399Z,96418.22
2022-10-18T04:46:08.980Z,96420.94
2022-10-18T04:48:35.528Z,96422.84
2022-10-18T04:51:02.089Z,96419.31
2022-10-18T04:53:28.567Z,96423.16
2022-10-18T04:55:55.166Z,96421.22
2022-10-18T04:58:21.692Z,96417.72
2022-10-18T05:00:49.552Z,96412.28
2022-10-18T05:03:16.492Z,96406.84
2022-10-18T05:06:00.821Z,96398.69
2022-10-18T05:08:29.119Z,96400.56
2022-10-18T05:10:55.665Z,96399.78
2022-10-18T05:13:22.167Z,96395.97
2022-10-18T05:15:48.742Z,96394.84
2022-10-18T05:18:15.225Z,96386.69
2022-10-18T05:20:41.826Z,96389.41
2022-10-18T05:23:08.282Z,96391.03
2022-10-18T05:25:34.759Z,96387.19
2022-10-18T05:28:06.352Z,96388.50
2022-10-18T05:30:42.686Z,96376.84
2022-10-18T05:33:09.559Z,96382.47
2022-10-18T05:35:36.078Z,96390.84
2022-10-18T05:38:04.485Z,96386.44
2022-10-18T05:40:31.094Z,96375.75
2022-10-18T05:42:57.534Z,96387.66
2022-10-18T05:45:24.115Z,96384.03
2022-10-18T05:47:50.594Z,96379.59
2022-10-18T05:50:17.199Z,96368.13
2022-10-18T05:52:43.726Z,96365.28
2022-10-18T05:55:10.250Z,96374.97
2022-10-18T05:57:36.720Z,96387.38
2022-10-18T06:00:04.857Z,96383.44
2022-10-18T06:02:38.385Z,96372.44
2022-10-18T06:05:05.215Z,96378.31
2022-10-18T06:07:31.956Z,96392.31
2022-10-18T06:09:58.635Z,96397.38
2022-10-18T06:12:25.227Z,96393.09
2022-10-18T06:14:51.796Z,96398.16
2022-10-18T06:17:18.415Z,96400.66
2022-10-18T06:19:44.988Z,96402.19
2022-10-18T06:22:12.094Z,96397.09
2022-10-18T06:24:38.747Z,96404.06
2022-10-18T06:29:51.975Z,96413.00
2022-10-18T06:32:18.423Z,96404.91
2022-10-18T06:34:44.896Z,96401.47
2022-10-18T06:37:11.476Z,96412.13
2022-10-18T06:39:38.018Z,96411.09
2022-10-18T06:42:04.570Z,96415.16
2022-10-18T06:44:33.940Z,96413.81
2022-10-18T06:47:00.836Z,96406.66
2022-10-18T06:49:27.548Z,96405.28
2022-10-18T06:51:54.525Z,96406.34
2022-10-18T06:54:21.132Z,96400.31
2022-10-18T06:56:47.664Z,96398.09
2022-10-18T06:59:14.453Z,96410.00
2022-10-18T07:01:40.964Z,96407.00
2022-10-18T07:04:07.453Z,96409.44
2022-10-18T07:06:34.001Z,96408.38
2022-10-18T07:09:00.534Z,96403.69
2022-10-18T07:11:27.446Z,96402.94
2022-10-18T07:13:58.429Z,96395.06
2022-10-18T07:16:24.985Z,96399.25
2022-10-18T07:18:52.108Z,96414.06
2022-10-18T07:21:21.540Z,96433.81
2022-10-18T07:23:48.709Z,96438.53
2022-10-18T07:26:18.684Z,96437.56
2022-10-18T07:28:47.766Z,96432.75
2022-10-18T07:31:14.636Z,96436.94
2022-10-18T07:33:41.179Z,96430.19
2022-10-18T07:36:09.851Z,96437.91
2022-10-18T07:38:36.612Z,96431.13
2022-10-18T07:41:05.247Z,96438.84
2022-10-18T07:43:32.164Z,96434.50
2022-10-18T07:46:01.035Z,96436.41
2022-10-18T07:48:27.936Z,96424.19
2022-10-18T07:50:54.851Z,96426.88
2022-10-18T07:53:21.392Z,96424.94
2022-10-18T07:55:47.869Z,96428.47
2022-10-18T07:58:14.375Z,96424.56
2022-10-18T08:00:40.828Z,96427.00
2022-10-18T08:03:07.429Z,96424.19
2022-10-18T08:05:34.004Z,96433.19
2022-10-18T08:08:04.239Z,96414.78
2022-10-18T08:10:35.147Z,96416.34
2022-10-18T08:13:01.648Z,96413.53
2022-10-18T08:15:28.166Z,96417.38
2022-10-18T08:17:54.890Z,96419.25
2022-10-18T08:20:30.411Z,96429.38
2022-10-18T08:23:00.104Z,96426.91
2022-10-18T08:25:27.782Z,96425.56
2022-10-18T08:27:54.325Z,96430.50
2022-10-18T08:30:20.912Z,96430.63
2022-10-18T08:32:47.446Z,96435.50
2022-10-18T08:35:13.971Z,96435.66
2022-10-18T08:37:40.468Z,96433.38
2022-10-18T08:40:07.546Z,96437.38
2022-10-18T08:43:03.636Z,96434.16
2022-10-18T08:45:42.022Z,96433.50
2022-10-18T08:48:19.224Z,96431.22
2022-10-18T08:50:46.740Z,96429.88
2022-10-18T08:53:39.270Z,96434.69
2022-10-18T08:56:11.065Z,96432.09
2022-10-18T08:58:38.502Z,96433.84
2022-10-18T09:01:31.674Z,96434.28
2022-10-18T09:04:20.207Z,96434.41
2022-10-18T09:07:07.901Z,96433.75
2022-10-18T09:09:52.828Z,96419.41
2022-10-18T09:12:49.774Z,96419.97
2022-10-18T09:15:38.522Z,96421.81
2022-10-18T09:18:42.053Z,96420.91
2022-10-18T09:21:25.288Z,96421.63
2022-10-18T09:24:38.879Z,96414.09
2022-10-18T09:27:14.768Z,96414.13
2022-10-18T09:30:04.602Z,96413.38
2022-10-18T09:32:52.072Z,96418.06
2022-10-18T09:35:24.340Z,96415.69
2022-10-18T09:37:55.644Z,96405.84
2022-10-18T09:40:29.121Z,96405.50
2022-10-18T09:43:00.493Z,96412.91
2022-10-18T09:45:30.865Z,96410.50
2022-10-18T09:48:18.796Z,96406.47
2022-10-18T09:50:58.073Z,96405.69
2022-10-18T09:53:32.379Z,96412.41
2022-10-18T09:56:09.544Z,96412.00
2022-10-18T09:58:44.841Z,96416.31
2022-10-18T10:01:14.370Z,96410.06
2022-10-18T10:03:42.033Z,96412.28
2022-10-18T10:06:14.235Z,96414.53
2022-10-18T10:08:48.180Z,96404.72
2022-10-18T10:11:37.409Z,96407.03
2022-10-18T10:14:20.601Z,96399.22
2022-10-18T10:16:49.137Z,96401.59
2022-10-18T10:19:56.376Z,96411.00
2022-10-18T10:22:27.857Z,96397.31
2022-10-18T10:24:55.280Z,96387.38
2022-10-18T10:27:31.078Z,96393.50
2022-10-18T10:30:04.152Z,96386.59
2022-10-18T10:32:46.979Z,96394.97
2022-10-18T10:35:33.791Z,96387.91
2022-10-18T10:38:23.567Z,96390.69
2022-10-18T10:40:50.644Z,96386.78
2022-10-18T10:43:39.159Z,96380.00
2022-10-18T10:46:10.232Z,96378.31
2022-10-18T10:48:49.464Z,96379.03
2022-10-18T10:51:27.898Z,96375.13
2022-10-18T10:54:00.958Z,96371.56
2022-10-18T10:56:33.485Z,96376.00
2022-10-18T10:59:20.853Z,96366.56
2022-10-18T11:01:47.487Z,96365.13
2022-10-18T11:04:31.120Z,96361.25
2022-10-18T11:07:21.233Z,96361.38
2022-10-18T11:09:50.687Z,96362.34
2022-10-18T11:12:43.009Z,96358.06
2022-10-18T11:15:24.721Z,96350.28
2022-10-18T11:18:13.368Z,96355.97
2022-10-18T11:21:02.878Z,96346.56
2022-10-18T11:23:33.032Z,96341.63
2022-10-18T11:26:13.785Z,96343.28
2022-10-18T11:28:52.476Z,96338.66
2022-10-18T11:31:26.186Z,96328.53
2022-10-18T11:34:10.491Z,96333.81
2022-10-18T11:36:54.793Z,96324.84
2022-10-18T11:39:55.160Z,96322.53
2022-10-18T11:42:39.805Z,96318.00
2022-10-18T11:45:22.089Z,96318.56
2022-10-18T11:48:03.503Z,96313.94
2022-10-18T11:50:53.586Z,96317.97
2022-10-18T11:53:39.306Z,96312.94
2022-10-18T11:56:30.569Z,96310.63
2022-10-18T11:59:19.786Z,96305.94
2022-10-18T12:02:09.473Z,96305.19
2022-10-18T12:05:05.130Z,96301.69
2022-10-18T12:07:39.961Z,96303.34
2022-10-18T12:10:09.719Z,96295.06
2022-10-18T12:12:45.911Z,96287.19
2022-10-18T12:15:21.955Z,96294.75
2022-10-18T12:17:54.529Z,96297.16
2022-10-18T12:20:27.011Z,96292.88
2022-10-18T12:23:01.457Z,96286.75
2022-10-18T12:25:35.468Z,96288.28
2022-10-18T12:28:21.477Z,96286.66
2022-10-18T12:31:12.758Z,96272.41
2022-10-18T12:33:44.678Z,96268.13
2022-10-18T12:36:39.081Z,96272.53
2022-10-18T12:39:12.556Z,96268.25
2022-10-18T12:41:39.296Z,96267.06
2022-10-18T12:44:19.361Z,96262.38
2022-10-18T12:46:49.842Z,96264.75
2022-10-18T12:49:24.091Z,96274.63
2022-10-18T12:51:54.013Z,96269.94
2022-10-18T12:54:25.997Z,96263.25
2022-10-18T12:56:52.643Z,96267.19
2022-10-18T12:59:19.096Z,96261.63
2022-10-18T13:01:51.817Z,96262.03
2022-10-18T13:04:27.792Z,96260.09
2022-10-18T13:07:20.249Z,96257.72
2022-10-18T13:10:11.543Z,96252.22
2022-10-18T13:12:47.404Z,96253.00
2022-10-18T13:15:43.036Z,96257.75
2022-10-18T13:18:27.148Z,96261.31
2022-10-18T13:21:20.310Z,96256.22
2022-10-18T13:24:04.483Z,96255.84
2022-10-18T13:26:58.127Z,96254.25
2022-10-18T13:30:04.339Z,96252.31
2022-10-18T13:32:57.978Z,96240.91
2022-10-18T13:35:57.330Z,96242.88
2022-10-18T13:38:54.031Z,96251.97
2022-10-18T13:44:21.635Z,96250.06
2022-10-18T13:46:48.231Z,96241.38
2022-10-18T13:49:17.577Z,96248.09
2022-10-18T13:52:01.451Z,96248.91
2022-10-18T13:54:36.872Z,96252.06
2022-10-18T13:57:24.537Z,96258.00
2022-10-18T13:59:59.260Z,96249.19
2022-10-18T14:02:58.511Z,96254.78
2022-10-18T14:05:47.677Z,96261.09
2022-10-18T14:08:27.863Z,96263.81
2022-10-18T14:11:05.889Z,96251.88
2022-10-18T14:13:54.845Z,96253.38
2022-10-18T14:16:31.814Z,96258.91
2022-10-18T14:19:11.337Z,96258.09
2022-10-18T14:21:43.177Z,96259.25
2022-10-18T14:24:22.316Z,96257.22
2022-10-18T14:27:11.914Z,96260.75
2022-10-18T14:29:39.949Z,96262.75
2022-10-18T14:32:17.642Z,96259.94
2022-10-18T14:34:44.498Z,96259.50
2022-10-18T14:37:21.812Z,96261.06
2022-10-18T14:39:48.449Z,96257.88
2022-10-18T14:42:26.882Z,96257.44
2022-10-18T14:44:56.437Z,96258.97
2022-10-18T14:47:25.790Z,96257.38
2022-10-18T14:49:53.093Z,96254.16
2022-10-18T14:52:26.280Z,96254.13
2022-10-18T14:54:56.914Z,96244.53
2022-10-18T14:57:31.998Z,96254.38
2022-10-18T15:00:01.570Z,96257.13
2022-10-18T15:02:32.216Z,96256.28
2022-10-18T15:05:06.218Z,96254.22
2022-10-18T15:07:33.672Z,96261.28
2022-10-18T15:10:02.292Z,96260.38
2022-10-18T15:12:36.975Z,96260.69
2022-10-18T15:15:21.645Z,96265.34
2022-10-18T15:17:49.529Z,96256.56
2022-10-18T15:20:25.312Z,96256.47
2022-10-18T15:22:53.177Z,96263.50
2022-10-18T15:25:29.438Z,96257.09
2022-10-18T15:27:59.787Z,96256.28
2022-10-18T15:30:29.728Z,96260.19
2022-10-18T15:33:01.769Z,96253.81
2022-10-18T15:35:30.369Z,96258.91
2022-10-18T15:37:59.447Z,96260.09
2022-10-18T15:40:32.938Z,96260.84
2022-10-18T15:43:03.063Z,96262.78
2022-10-18T15:45:36.395Z,96273.44
2022-10-18T15:48:08.649Z,96264.72
2022-10-18T15:50:40.606Z,96260.72
2022-10-18T15:53:22.301Z,96261.47
2022-10-18T15:55:55.800Z,96274.88
2022-10-18T15:58:26.235Z,96271.69
2022-10-18T16:00:57.589Z,96266.44
2022-10-18T16:03:24.833Z,96264.41
2022-10-18T16:05:57.087Z,96269.88
2022-10-18T16:08:26.896Z,96271.44
2022-10-18T16:10:53.437Z,96274.94
2022-10-18T16:13:20.040Z,96272.47
2022-10-18T16:15:46.689Z,96268.88
2022-10-18T16:18:15.397Z,96275.91
2022-10-18T16:20:42.311Z,96269.53
2022-10-18T16:23:20.902Z,96278.94
2022-10-18T16:25:47.820Z,96275.72
2022-10-18T16:28:20.407Z,96284.28
2022-10-18T16:31:01.777Z,96291.25
2022-10-18T16:33:28.356Z,96289.59
2022-10-18T16:35:55.312Z,96296.59
2022-10-18T16:38:32.703Z,96304.00
2022-10-18T16:41:05.772Z,96310.69
2022-10-18T16:43:33.438Z,96305.84
2022-10-18T16:46:01.056Z,96314.34
2022-10-18T16:48:28.095Z,96312.22
2022-10-18T16:50:55.818Z,96314.03
2022-10-18T16:53:22.861Z,96314.69
2022-10-18T16:55:58.511Z,96326.38
2022-10-18T16:58:27.147Z,96330.22
2022-10-18T17:00:53.698Z,96330.50
2022-10-18T17:03:20.409Z,96332.38
2022-10-18T17:05:46.909Z,96332.63
2022-10-18T17:08:21.974Z,96341.56
2022-10-18T17:10:50.237Z,96334.34
2022-10-18T17:13:20.173Z,96344.50
2022-10-18T17:15:47.006Z,96344.34
2022-10-18T17:18:19.568Z,96345.84
2022-10-18T17:20:46.426Z,96346.91
2022-10-18T17:23:12.951Z,96341.31
2022-10-18T17:25:51.589Z,96349.53
2022-10-18T17:28:28.031Z,96347.84
2022-10-18T17:30:54.572Z,96349.69
2022-10-18T17:33:21.040Z,96354.34
2022-10-18T17:35:48.673Z,96367.22
2022-10-18T17:38:15.712Z,96351.47
2022-10-18T17:40:42.677Z,96362.25
2022-10-18T17:43:09.283Z,96364.53
2022-10-18T17:45:35.786Z,96369.16
2022-10-18T17:48:02.329Z,96376.53
2022-10-18T17:50:28.864Z,96380.00
2022-10-18T17:52:55.340Z,96377.91
2022-10-18T17:55:21.853Z,96374.28
2022-10-18T17:57:48.358Z,96374.16
2022-10-18T18:00:14.940Z,96383.94
2022-10-18T18:02:42.082Z,96383.88
2022-10-18T18:05:09.281Z,96374.69
2022-10-18T18:07:35.883Z,96386.41
2022-10-18T18:10:02.628Z,96380.03
2022-10-18T18:12:29.242Z,96387.03
2022-10-18T18:14:55.946Z,96383.00
2022-10-18T18:17:33.664Z,96387.63
2022-10-18T18:20:01.088Z,96396.25
2022-10-18T18:22:27.603Z,96393.03
2022-10-18T18:24:54.217Z,96393.03
2022-10-18T18:27:20.707Z,96387.88
2022-10-18T18:29:48.404Z,96385.13
2022-10-18T18:32:14.895Z,96390.63
2022-10-18T18:34:42.007Z,96390.97
2022-10-18T18:37:09.162Z,96391.34
2022-10-18T18:39:36.104Z,96392.50
2022-10-18T18:42:03.385Z,96385.38
2022-10-18T18:44:30.372Z,96390.44
2022-10-18T18:46:56.990Z,96390.44
2022-10-18T18:49:23.472Z,96391.56
2022-10-18T18:51:50.046Z,96385.63
2022-10-18T18:54:16.515Z,96388.38
2022-10-18T18:56:43.043Z,96387.13
2022-10-18T18:59:12.910Z,96383.91
2022-10-18T19:01:39.599Z,96390.22
2022-10-18T19:04:07.830Z,96388.16
2022-10-18T19:06:39.997Z,96382.22
2022-10-18T19:09:09.120Z,96392.44
2022-10-18T19:11:37.236Z,96393.47
2022-10-18T19:14:03.658Z,96398.66
2022-10-18T19:16:34.965Z,96392.56
2022-10-18T19:19:12.816Z,96398.88
2022-10-18T19:21:42.335Z,96389.38
2022-10-18T19:24:08.906Z,96393.25
2022-10-18T19:26:41.485Z,96387.31
2022-10-18T19:29:27.305Z,96390.75
2022-10-18T19:31:56.546Z,96395.47
2022-10-18T19:34:25.302Z,96388.69
2022-10-18T19:36:52.307Z,96392.63
2022-10-18T19:39:18.848Z,96389.41
2022-10-18T19:41:46.685Z,96393.66
2022-10-18T19:44:13.401Z,96391.56
2022-10-18T19:46:39.872Z,96389.16
2022-10-18T19:49:06.728Z,96396.16
2022-10-18T19:51:33.334Z,96389.75
2022-10-18T19:53:59.937Z,96394.34
2022-10-18T19:56:27.681Z,96395.03
2022-10-18T19:58:55.997Z,96390.91
2022-10-18T20:01:22.977Z,96389.19
2022-10-18T20:03:49.473Z,96397.69
2022-10-18T20:06:16.059Z,96393.56
2022-10-18T20:08:43.516Z,96397.69
2022-10-18T20:11:13.227Z,96391.16
2022-10-18T20:13:40.192Z,96397.56
2022-10-18T20:16:08.525Z,96398.94
2022-10-18T20:18:35.465Z,96400.69
2022-10-18T20:21:09.399Z,96392.19
2022-10-18T20:23:37.824Z,96400.19
2022-10-18T20:26:07.233Z,96403.47
2022-10-18T20:28:34.636Z,96399.69
2022-10-18T20:31:03.741Z,96401.41
2022-10-18T20:33:30.824Z,96400.34
2022-10-18T20:36:02.269Z,96408.31
2022-10-18T20:38:30.794Z,96409.66
2022-10-18T20:41:02.446Z,96412.19
2022-10-18T20:43:28.951Z,96420.63
2022-10-18T20:45:56.558Z,96417.28
2022-10-18T20:48:23.149Z,96416.22
2022-10-18T20:50:49.669Z,96410.59
2022-10-18T20:53:16.266Z,96413.56
2022-10-18T20:55:42.831Z,96417.31
2022-10-18T20:58:12.729Z,96416.38
2022-10-18T21:00:39.231Z,96420.94
2022-10-18T21:03:05.835Z,96419.19
2022-10-18T21:05:33.110Z,96421.78
2022-10-18T21:07:59.649Z,96420.03
2022-10-18T21:10:26.397Z,96415.53
2022-10-18T21:12:53.389Z,96418.97
2022-10-18T21:15:20.175Z,96416.88
2022-10-18T21:17:50.795Z,96414.31
2022-10-18T21:20:17.810Z,96410.66
2022-10-18T21:22:44.336Z,96410.19
2022-10-18T21:25:10.880Z,96401.00
2022-10-18T21:27:37.366Z,96392.31
2022-10-18T21:30:04.548Z,96399.59
2022-10-18T21:32:31.410Z,96401.09
2022-10-18T21:34:58.104Z,96397.06
2022-10-18T21:37:24.657Z,96401.59
2022-10-18T21:39:51.161Z,96400.00
2022-10-18T21:42:17.749Z,96400.16
2022-10-18T21:44:44.238Z,96401.66
2022-10-18T21:47:10.757Z,96399.56
2022-10-18T21:49:37.328Z,96393.13
2022-10-18T21:52:03.966Z,96393.00
2022-10-18T21:54:30.450Z,96386.56
2022-10-18T21:56:56.897Z,96399.00
2022-10-18T21:59:23.437Z,96399.66
2022-10-18T22:01:51.839Z,96392.44
2022-10-18T22:04:25.300Z,96400.50
2022-10-18T22:06:52.019Z,96400.00
2022-10-18T22:09:19.325Z,96389.72
2022-10-18T22:11:49.427Z,96402.81
2022-10-18T22:14:16.056Z,96397.97
2022-10-18T22:16:42.783Z,96386.88
2022-10-18T22:19:09.275Z,96385.56
2022-10-18T22:21:35.962Z,96388.16
2022-10-18T22:24:05.941Z,96384.13
2022-10-18T22:26:35.625Z,96389.94
2022-10-18T22:29:06.621Z,96389.81
2022-10-18T22:31:35.665Z,96387.06
2022-10-18T22:34:05.051Z,96374.50
2022-10-18T22:36:32.606Z,96371.75
2022-10-18T22:38:59.476Z,96374.16
2022-10-18T22:41:26.313Z,96376.91
2022-10-18T22:43:53.338Z,96383.69
2022-10-18T22:46:20.631Z,96384.13
2022-10-18T22:48:47.613Z,96372.88
2022-10-18T22:51:14.650Z,96371.09
2022-10-18T22:53:41.393Z,96377.84
2022-10-18T22:56:11.453Z,96373.81
2022-10-18T22:58:38.081Z,96373.97
2022-10-18T23:01:07.536Z,96363.16
2022-10-18T23:03:34.377Z,96357.81
2022-10-18T23:06:01.127Z,96357.16
2022-10-18T23:08:28.814Z,96362.28
2022-10-18T23:10:58.898Z,96372.94
2022-10-18T23:13:27.233Z,96364.84
2022-10-18T23:16:04.236Z,96363.72
2022-10-18T23:18:32.795Z,96361.44
2022-10-18T23:21:08.451Z,96364.66
2022-10-18T23:23:36.559Z,96360.13
2022-10-18T23:26:04.629Z,96356.63
2022-10-18T23:28:34.403Z,96362.19
2022-10-18T23:31:15.625Z,96356.50
2022-10-18T23:33:42.073Z,96351.16
2022-10-18T23:36:09.128Z,96355.97
2022-10-18T23:38:37.000Z,96362.75
2022-10-18T23:41:04.921Z,96356.94
2022-10-18T23:43:32.190Z,96360.13
2022-10-18T23:45:58.681Z,96355.94
2022-10-18T23:48:25.383Z,96352.88
2022-10-18T23:50:52.154Z,96353.31
2022-10-18T23:53:19.409Z,96347.06
2022-10-18T23:56:04.297Z,96341.56
2022-10-18T23:58:32.116Z,96337.66
